Hlavní strana
METAR-TAF:

METAR-TAF

Letiště :

Marion Municipal Airport

Marion, Ohio, Spojené státy americké

zeměpisná šířka: 40-37-00N, zeměpisná délka: 083-04-06W, výška: 303 m

Aktuální stav počasí

Zpráva byla vytvořena před 28 minutami, v 11:06 UTC
Západní vítr 15 kt s nárazy do 21 kt
Teplota 0°C
Vlhkost vzduchu 80%
Tlak 1011 hPa
Viditelnost: 16.1 km
Zataženo ve výšce 1400 ft

METAR: KMNN 101106Z AUTO 28015G21KT 10SM OVC014 00/M03 A2986 RMK AO2 T00001033 $

Čas: 06:34 (11:34 UTC)


TAF: chybějící

Stav a předpovědi počasí z více než 4 000 letišť (zprávy METAR a TAF).

Červené a žluté tečky na mapě představují dostupné meteorologické stanice.

Když kurzor umístíte na tečku, zobrazí se název stanice.

Pak kliknutím zobrazíte stav a předpověď počasí.

Chcete-li změnit mapu, kliknutím na zelené tlačítko se znaménkem +mapu přiblížíte, kliknutím na zelené tlačítko se znaménkem – mapu oddálíte a kliknutím na zelené šipky přejdete na sousední mapy.


METAR-TAF: